createdAt,value
2018-05-23T00:01:25.654Z,27.9
2018-05-23T00:04:22.556Z,27.9
2018-05-23T00:07:19.579Z,27.9
2018-05-23T00:10:16.587Z,28
2018-05-23T00:13:13.624Z,28
2018-05-23T00:16:10.576Z,28
2018-05-23T00:19:07.610Z,28
2018-05-23T00:22:04.596Z,28.1
2018-05-23T00:25:01.705Z,28.1
2018-05-23T00:27:58.581Z,28.2
2018-05-23T00:30:55.643Z,28.4
2018-05-23T00:33:52.609Z,28.4
2018-05-23T00:36:49.641Z,28.5
2018-05-23T00:39:46.591Z,28.7
2018-05-23T00:42:43.696Z,28.8
2018-05-23T00:45:40.635Z,28.9
2018-05-23T00:48:37.836Z,29
2018-05-23T00:54:31.664Z,29.3
2018-05-23T00:57:28.631Z,29.4
2018-05-23T01:00:25.741Z,29.6
2018-05-23T01:06:19.771Z,29.8
2018-05-23T01:09:16.659Z,30
2018-05-23T01:12:13.833Z,30.1
2018-05-23T01:15:10.627Z,30.2
2018-05-23T01:18:07.777Z,30.3
2018-05-23T01:21:04.662Z,30.4
2018-05-23T01:24:01.775Z,30.5
2018-05-23T01:26:58.684Z,30.6
2018-05-23T01:29:55.816Z,30.8
2018-05-23T01:35:49.790Z,30.9
2018-05-23T01:38:46.699Z,31
2018-05-23T01:41:43.736Z,31.1
2018-05-23T01:44:40.714Z,31.2
2018-05-23T01:50:34.751Z,31.3
2018-05-23T01:53:31.718Z,31.4
2018-05-23T01:56:29.227Z,31.5
2018-05-23T01:59:25.731Z,31.6
2018-05-23T02:02:22.763Z,31.7
2018-05-23T02:05:19.793Z,31.7
2018-05-23T02:08:16.827Z,31.8
2018-05-23T02:11:13.752Z,32
2018-05-23T02:14:10.912Z,32
2018-05-23T02:17:07.762Z,32
2018-05-23T02:20:04.992Z,32.1
2018-05-23T02:23:01.770Z,32.2
2018-05-23T02:25:58.787Z,32.2
2018-05-23T02:28:55.779Z,32.4
2018-05-23T02:31:52.819Z,32.5
2018-05-23T02:34:50.190Z,32.5
2018-05-23T02:37:47.338Z,32.6
2018-05-23T02:43:41.281Z,32.8
2018-05-23T02:46:37.804Z,32.8
2018-05-23T02:49:34.849Z,32.8
2018-05-23T02:52:31.818Z,33
2018-05-23T02:55:28.977Z,33
2018-05-23T02:58:25.823Z,33.1
2018-05-23T03:01:23.071Z,33.1
2018-05-23T03:04:19.829Z,33.2
2018-05-23T03:07:16.853Z,33.2
2018-05-23T03:10:13.872Z,33.2
2018-05-23T03:13:10.883Z,33.4
2018-05-23T03:16:07.881Z,33.6
2018-05-23T03:19:04.924Z,33.6
2018-05-23T03:22:01.911Z,33.7
2018-05-23T03:24:58.909Z,33.6
2018-05-23T03:27:55.858Z,33.6
2018-05-23T03:30:52.887Z,33.5
2018-05-23T03:33:49.901Z,33.5
2018-05-23T03:36:46.911Z,33.6
2018-05-23T03:39:43.876Z,33.7
2018-05-23T03:42:40.931Z,33.8
2018-05-23T03:45:37.906Z,33.9
2018-05-23T03:48:34.927Z,34
2018-05-23T03:54:29.138Z,34
2018-05-23T03:57:25.918Z,34
2018-05-23T04:00:23.026Z,34
2018-05-23T04:03:19.937Z,34.2
2018-05-23T04:06:17.051Z,34.2
2018-05-23T04:09:13.931Z,34.3
2018-05-23T04:12:11.084Z,34.4
2018-05-23T04:15:07.947Z,34.4
2018-05-23T04:18:05.133Z,34.5
2018-05-23T04:23:58.976Z,34.6
2018-05-23T04:26:55.970Z,34.7
2018-05-23T04:35:47.111Z,34.9
2018-05-23T04:38:43.991Z,35
2018-05-23T04:41:41.154Z,34.9
2018-05-23T04:44:37.999Z,34.8
2018-05-23T04:47:35.043Z,35
2018-05-23T04:50:32.030Z,35
2018-05-23T04:53:29.047Z,35
2018-05-23T04:56:26.020Z,35.2
2018-05-23T04:59:23.075Z,35.4
2018-05-23T05:05:17.166Z,35.6
2018-05-23T05:11:11.121Z,35.5
2018-05-23T05:14:08.055Z,35.5
2018-05-23T05:17:05.095Z,35.6
2018-05-23T05:20:02.108Z,35.5
2018-05-23T05:22:59.094Z,35.5
2018-05-23T05:28:53.689Z,35.3
2018-05-23T05:31:50.205Z,35.2
2018-05-23T05:37:44.109Z,35.3
2018-05-23T05:40:41.140Z,35.2
2018-05-23T05:43:38.216Z,35.3
2018-05-23T05:46:35.117Z,35.3
2018-05-23T05:49:32.150Z,35.2
2018-05-23T05:52:29.125Z,35.2
2018-05-23T05:55:26.784Z,35.4
2018-05-23T06:04:17.755Z,35.4
2018-05-23T06:16:05.218Z,35
2018-05-23T06:19:02.173Z,35
2018-05-23T06:21:59.404Z,34.8
2018-05-23T06:27:53.354Z,34.7
2018-05-23T06:30:50.195Z,34.6
2018-05-23T06:33:47.263Z,34.6
2018-05-23T06:36:44.189Z,34.5
2018-05-23T06:39:41.206Z,34.4
2018-05-23T06:42:38.216Z,34.4
2018-05-23T06:48:32.319Z,34.3
2018-05-23T06:51:29.237Z,34.2
2018-05-23T06:57:23.702Z,34.1
2018-05-23T07:00:20.682Z,34
2018-05-23T07:03:17.355Z,34
2018-05-23T07:06:14.246Z,34
2018-05-23T07:09:11.291Z,34.1
2018-05-23T07:12:08.262Z,34
2018-05-23T07:15:05.488Z,34
2018-05-23T07:20:59.482Z,34
2018-05-23T07:44:35.362Z,34.8
2018-05-23T07:53:26.357Z,34.8
2018-05-23T07:56:23.338Z,34.8
2018-05-23T07:59:20.619Z,34.8
2018-05-23T08:02:17.323Z,34.8
2018-05-23T08:05:14.549Z,34.8
2018-05-23T08:08:11.370Z,34.8
2018-05-23T08:11:08.939Z,34.7
2018-05-23T08:14:05.810Z,34.8
2018-05-23T08:17:02.813Z,34.9
2018-05-23T08:19:59.369Z,35.1
2018-05-23T08:22:56.538Z,35.2
2018-05-23T08:25:53.380Z,35.3
2018-05-23T08:28:50.624Z,35.4
2018-05-23T08:34:44.413Z,35.5
2018-05-23T08:37:41.461Z,35.4
2018-05-23T08:40:38.844Z,35.4
2018-05-23T08:49:29.585Z,35.6
2018-05-23T09:07:11.470Z,35.7
2018-05-23T09:13:05.488Z,35.8
2018-05-23T09:16:02.473Z,35.8
2018-05-23T09:18:59.619Z,35.8
2018-05-23T09:21:56.495Z,35.8
2018-05-23T09:27:50.657Z,35.8
2018-05-23T09:30:47.512Z,35.7
2018-05-23T09:33:44.533Z,35.6
2018-05-23T09:36:41.506Z,35.6
2018-05-23T09:42:35.822Z,35.5
2018-05-23T09:45:32.520Z,35.6
2018-05-23T09:48:29.563Z,35.5
2018-05-23T09:51:26.525Z,35.4
2018-05-23T09:54:23.571Z,35.4
2018-05-23T09:57:20.538Z,35.3
2018-05-23T10:06:11.710Z,35.1
2018-05-23T10:09:08.536Z,35
2018-05-23T10:12:05.723Z,35
2018-05-23T10:17:59.802Z,34.8
2018-05-23T10:23:53.625Z,34.6
2018-05-23T10:38:38.776Z,34
2018-05-23T10:44:32.785Z,33.8
2018-05-23T10:47:29.631Z,33.7
2018-05-23T10:56:20.691Z,33.5
2018-05-23T10:59:17.632Z,33.4
2018-05-23T11:02:14.806Z,33.4
2018-05-23T11:11:05.726Z,33.1
2018-05-23T11:14:02.664Z,33
2018-05-23T11:16:59.704Z,32.9
2018-05-23T11:22:53.717Z,32.9
2018-05-23T11:28:47.913Z,32.8
2018-05-23T11:37:38.741Z,32.6
2018-05-23T11:40:35.709Z,32.5
2018-05-23T11:46:29.754Z,32.4
2018-05-23T11:49:26.732Z,32.3
2018-05-23T11:52:23.761Z,32.2
2018-05-23T11:58:17.771Z,32.1
2018-05-23T12:10:05.810Z,31.7
2018-05-23T12:15:59.806Z,31.6
2018-05-23T12:18:56.775Z,31.6
2018-05-23T12:24:50.808Z,31.4
2018-05-23T12:27:47.794Z,31.3
2018-05-23T12:30:44.818Z,31.3
2018-05-23T12:33:41.788Z,31.2
2018-05-23T12:36:38.975Z,31.2
2018-05-23T12:39:35.804Z,31.1
2018-05-23T12:42:32.852Z,31.1
2018-05-23T12:48:26.811Z,31
2018-05-23T12:51:23.824Z,31
2018-05-23T12:54:20.854Z,31
2018-05-23T12:57:17.845Z,30.9
2018-05-23T13:00:14.863Z,30.9
2018-05-23T13:03:11.846Z,30.9
2018-05-23T13:06:08.926Z,30.8
2018-05-23T13:09:05.812Z,30.8
2018-05-23T13:12:02.900Z,30.7
2018-05-23T13:14:59.843Z,30.7
2018-05-23T13:17:56.957Z,30.6
2018-05-23T13:20:53.866Z,30.6
2018-05-23T13:23:50.901Z,30.6
2018-05-23T13:26:47.880Z,30.6
2018-05-23T13:29:45.046Z,30.6
2018-05-23T13:35:38.919Z,30.6
2018-05-23T13:38:35.902Z,30.5
2018-05-23T13:44:30.073Z,30.4
2018-05-23T13:47:26.918Z,30.4
2018-05-23T13:50:24.047Z,30.4
2018-05-23T13:53:20.932Z,30.4
2018-05-23T13:56:18.133Z,30.4
2018-05-23T13:59:14.909Z,30.4
2018-05-23T14:02:12.107Z,30.4
2018-05-23T14:05:08.938Z,30.4
2018-05-23T14:11:03.099Z,30.3
2018-05-23T14:16:57.000Z,30.2
2018-05-23T14:19:53.971Z,30.2
2018-05-23T14:22:51.001Z,30.1
2018-05-23T14:28:45.012Z,30
2018-05-23T14:31:41.979Z,30
2018-05-23T14:34:39.127Z,30
2018-05-23T14:37:35.990Z,30
2018-05-23T14:40:33.021Z,30
2018-05-23T14:43:30.023Z,30
2018-05-23T14:46:27.028Z,30
2018-05-23T14:49:24.002Z,29.9
2018-05-23T14:52:21.140Z,29.9
2018-05-23T14:55:18.005Z,29.9
2018-05-23T14:58:15.244Z,29.9
2018-05-23T15:01:12.010Z,29.9
2018-05-23T15:04:09.055Z,29.9
2018-05-23T15:07:06.032Z,29.9
2018-05-23T15:10:03.075Z,29.8
2018-05-23T15:13:00.028Z,29.8
2018-05-23T15:15:57.051Z,29.8
2018-05-23T15:18:54.042Z,29.8
2018-05-23T15:21:51.091Z,29.8
2018-05-23T15:24:48.058Z,29.8
2018-05-23T15:27:45.061Z,29.8
2018-05-23T15:30:42.059Z,29.9
2018-05-23T15:39:33.077Z,29.9
2018-05-23T15:45:27.105Z,29.9
2018-05-23T15:48:24.060Z,29.8
2018-05-23T15:51:21.120Z,29.8
2018-05-23T15:54:18.105Z,29.8
2018-05-23T15:57:15.119Z,29.8
2018-05-23T16:00:12.072Z,29.7
2018-05-23T16:03:09.146Z,29.7
2018-05-23T16:09:03.153Z,29.7
2018-05-23T16:12:00.076Z,29.6
2018-05-23T16:14:57.170Z,29.6
2018-05-23T16:17:54.129Z,29.6
2018-05-23T16:20:51.181Z,29.6
2018-05-23T16:23:48.144Z,29.7
2018-05-23T16:26:45.383Z,29.6
2018-05-23T16:29:42.147Z,29.6
2018-05-23T16:32:39.153Z,29.6
2018-05-23T16:35:36.156Z,29.6
2018-05-23T16:38:33.196Z,29.7
2018-05-23T16:41:30.162Z,29.6
2018-05-23T16:44:27.364Z,29.6
2018-05-23T16:47:24.173Z,29.6
2018-05-23T16:50:21.192Z,29.6
2018-05-23T16:53:18.183Z,29.6
2018-05-23T16:56:15.412Z,29.6
2018-05-23T16:59:12.183Z,29.6
2018-05-23T17:02:09.237Z,29.6
2018-05-23T17:05:06.197Z,29.6
2018-05-23T17:08:03.361Z,29.5
2018-05-23T17:11:00.214Z,29.5
2018-05-23T17:13:57.215Z,29.4
2018-05-23T17:16:54.225Z,29.4
2018-05-23T17:19:51.380Z,29.3
2018-05-23T17:22:48.207Z,29.3
2018-05-23T17:25:45.455Z,29.2
2018-05-23T17:28:42.236Z,29.2
2018-05-23T17:31:39.395Z,29.2
2018-05-23T17:34:36.251Z,29.2
2018-05-23T17:37:33.284Z,29.2
2018-05-23T17:40:30.243Z,29.1
2018-05-23T17:43:27.278Z,29.1
2018-05-23T17:46:24.269Z,29.1
2018-05-23T17:49:21.312Z,29
2018-05-23T17:52:18.283Z,29
2018-05-23T17:55:15.405Z,29
2018-05-23T17:58:12.236Z,29
2018-05-23T18:01:09.440Z,29
2018-05-23T18:04:06.274Z,29
2018-05-23T18:07:03.448Z,28.9
2018-05-23T18:10:00.330Z,29
2018-05-23T18:12:57.333Z,28.9
2018-05-23T18:15:54.322Z,28.9
2018-05-23T18:18:51.463Z,28.8
2018-05-23T18:21:48.309Z,28.8
2018-05-23T18:27:42.354Z,28.8
2018-05-23T18:30:39.324Z,28.8
2018-05-23T18:33:36.486Z,28.8
2018-05-23T18:36:33.338Z,28.8
2018-05-23T18:42:27.499Z,28.8
2018-05-23T18:45:24.354Z,28.8
2018-05-23T18:48:21.515Z,28.7
2018-05-23T18:51:18.352Z,28.7
2018-05-23T18:54:15.387Z,28.7
2018-05-23T18:57:12.455Z,28.7
2018-05-23T19:00:09.592Z,28.7
2018-05-23T19:03:06.383Z,28.7
2018-05-23T19:06:03.570Z,28.7
2018-05-23T19:09:00.379Z,28.7
2018-05-23T19:11:57.425Z,28.7
2018-05-23T19:14:54.384Z,28.7
2018-05-23T19:17:51.429Z,28.6
2018-05-23T19:20:48.367Z,28.6
2018-05-23T19:23:45.434Z,28.6
2018-05-23T19:26:42.397Z,28.7
2018-05-23T19:29:39.451Z,28.7
2018-05-23T19:32:36.412Z,28.7
2018-05-23T19:35:33.458Z,28.7
2018-05-23T19:38:30.423Z,28.7
2018-05-23T19:41:27.889Z,28.7
2018-05-23T19:50:18.638Z,28.7
2018-05-23T19:53:15.455Z,28.7
2018-05-23T19:56:12.496Z,28.7
2018-05-23T20:02:06.669Z,28.7
2018-05-23T20:05:03.482Z,28.7
2018-05-23T20:08:00.563Z,28.7
2018-05-23T20:10:57.491Z,28.7
2018-05-23T20:13:54.698Z,28.7
2018-05-23T20:16:51.995Z,28.6
2018-05-23T20:19:48.566Z,28.6
2018-05-23T20:22:45.491Z,28.7
2018-05-23T20:25:42.625Z,28.6
2018-05-23T20:28:39.512Z,28.6
2018-05-23T20:31:36.731Z,28.6
2018-05-23T20:40:27.572Z,28.6
2018-05-23T20:43:24.525Z,28.6
2018-05-23T20:46:21.598Z,28.6
2018-05-23T20:52:15.623Z,28.6
2018-05-23T20:55:12.571Z,28.6
2018-05-23T20:58:09.603Z,28.6
2018-05-23T21:01:06.594Z,28.6
2018-05-23T21:07:00.700Z,28.6
2018-05-23T21:09:57.571Z,28.6
2018-05-23T21:12:54.717Z,28.6
2018-05-23T21:15:51.564Z,28.6
2018-05-23T21:18:48.602Z,28.6
2018-05-23T21:21:45.571Z,28.6
2018-05-23T21:24:42.795Z,28.6
2018-05-23T21:27:39.577Z,28.6
2018-05-23T21:30:36.764Z,28.5
2018-05-23T21:33:33.602Z,28.5
2018-05-23T21:36:30.630Z,28.4
2018-05-23T21:39:27.596Z,28.4
2018-05-23T21:42:24.762Z,28.4
2018-05-23T21:45:21.604Z,28.4
2018-05-23T21:48:18.665Z,28.4
2018-05-23T21:51:15.613Z,28.3
2018-05-23T21:54:12.674Z,28.3
2018-05-23T21:57:09.635Z,28.2
2018-05-23T22:00:06.826Z,28.2
2018-05-23T22:06:01.033Z,28.2
2018-05-23T22:08:57.645Z,28.2
2018-05-23T22:11:55.148Z,28.1
2018-05-23T22:14:51.670Z,28.1
2018-05-23T22:17:48.740Z,28.1
2018-05-23T22:20:45.839Z,28.1
2018-05-23T22:23:42.963Z,28.1
2018-05-23T22:26:39.702Z,28.1
2018-05-23T22:29:36.705Z,28.1
2018-05-23T22:32:33.688Z,28.1
2018-05-23T22:35:30.725Z,28.1
2018-05-23T22:38:27.694Z,28.1
2018-05-23T22:41:24.870Z,28
2018-05-23T22:44:21.777Z,28.1
2018-05-23T22:53:12.728Z,28
2018-05-23T22:56:09.709Z,28
2018-05-23T22:59:06.745Z,28
2018-05-23T23:02:03.932Z,28
2018-05-23T23:05:00.758Z,28
2018-05-23T23:07:57.749Z,28.1
2018-05-23T23:10:54.771Z,28.1
2018-05-23T23:13:51.712Z,28.1
2018-05-23T23:16:48.783Z,28.1
2018-05-23T23:19:45.753Z,28.1
2018-05-23T23:22:42.779Z,28.1
2018-05-23T23:28:36.998Z,28.2
2018-05-23T23:31:33.775Z,28.2
2018-05-23T23:34:30.923Z,28.2
2018-05-23T23:37:27.758Z,28.3
2018-05-23T23:43:21.935Z,28.4
2018-05-23T23:49:15.953Z,28.5
2018-05-23T23:52:12.796Z,28.5
2018-05-23T23:55:09.954Z,28.5
2018-05-23T23:58:06.811Z,28.6
